sensor_id;sensor_type;location;lat;lon;timestamp;temperature;humidity
7117;DHT22;3600;48.568;7.870;2023-08-24T00:01:38;21.40;99.90
7117;DHT22;3600;48.568;7.870;2023-08-24T00:04:04;21.40;99.90
7117;DHT22;3600;48.568;7.870;2023-08-24T00:06:31;21.30;99.90
7117;DHT22;3600;48.568;7.870;2023-08-24T00:08:58;21.50;99.90
7117;DHT22;3600;48.568;7.870;2023-08-24T00:11:26;21.60;99.90
7117;DHT22;3600;48.568;7.870;2023-08-24T00:13:53;21.50;99.90
7117;DHT22;3600;48.568;7.870;2023-08-24T00:16:20;21.70;99.90
7117;DHT22;3600;48.568;7.870;2023-08-24T00:18:47;21.60;99.90
7117;DHT22;3600;48.568;7.870;2023-08-24T00:21:15;21.50;99.90
7117;DHT22;3600;48.568;7.870;2023-08-24T00:23:43;21.90;99.90
7117;DHT22;3600;48.568;7.870;2023-08-24T00:26:11;22.00;99.90
7117;DHT22;3600;48.568;7.870;2023-08-24T00:28:37;21.60;99.90
7117;DHT22;3600;48.568;7.870;2023-08-24T00:31:04;21.40;99.90
7117;DHT22;3600;48.568;7.870;2023-08-24T00:33:31;21.30;99.90
7117;DHT22;3600;48.568;7.870;2023-08-24T00:36:02;21.20;99.90
7117;DHT22;3600;48.568;7.870;2023-08-24T00:38:29;21.30;99.90
7117;DHT22;3600;48.568;7.870;2023-08-24T00:40:56;21.20;99.90
7117;DHT22;3600;48.568;7.870;2023-08-24T00:43:23;21.20;99.90
7117;DHT22;3600;48.568;7.870;2023-08-24T00:45:51;21.50;99.90
7117;DHT22;3600;48.568;7.870;2023-08-24T00:48:19;21.60;99.90
7117;DHT22;3600;48.568;7.870;2023-08-24T00:50:47;21.60;99.90
7117;DHT22;3600;48.568;7.870;2023-08-24T00:53:13;21.50;99.90
7117;DHT22;3600;48.568;7.870;2023-08-24T00:55:40;21.30;99.90
7117;DHT22;3600;48.568;7.870;2023-08-24T00:58:07;21.50;99.90
7117;DHT22;3600;48.568;7.870;2023-08-24T01:00:35;21.30;99.90
7117;DHT22;3600;48.568;7.870;2023-08-24T01:03:04;21.40;99.90
7117;DHT22;3600;48.568;7.870;2023-08-24T01:05:34;21.50;99.90
7117;DHT22;3600;48.568;7.870;2023-08-24T01:08:01;21.20;99.90
7117;DHT22;3600;48.568;7.870;2023-08-24T01:10:36;20.80;99.90
7117;DHT22;3600;48.568;7.870;2023-08-24T01:13:10;20.80;99.90
7117;DHT22;3600;48.568;7.870;2023-08-24T01:15:51;20.80;99.90
7117;DHT22;3600;48.568;7.870;2023-08-24T01:18:22;20.60;99.90
7117;DHT22;3600;48.568;7.870;2023-08-24T01:20:53;20.40;99.90
7117;DHT22;3600;48.568;7.870;2023-08-24T01:23:49;20.30;99.90
7117;DHT22;3600;48.568;7.870;2023-08-24T01:26:21;20.30;99.90
7117;DHT22;3600;48.568;7.870;2023-08-24T01:28:48;20.40;99.90
7117;DHT22;3600;48.568;7.870;2023-08-24T01:31:16;20.60;99.90
7117;DHT22;3600;48.568;7.870;2023-08-24T01:33:46;20.50;99.90
7117;DHT22;3600;48.568;7.870;2023-08-24T01:36:15;20.30;99.90
7117;DHT22;3600;48.568;7.870;2023-08-24T01:39:02;20.60;99.90
7117;DHT22;3600;48.568;7.870;2023-08-24T01:41:36;20.60;99.90
7117;DHT22;3600;48.568;7.870;2023-08-24T01:44:12;20.50;99.90
7117;DHT22;3600;48.568;7.870;2023-08-24T01:46:42;20.50;99.90
7117;DHT22;3600;48.568;7.870;2023-08-24T01:49:12;20.50;99.90
7117;DHT22;3600;48.568;7.870;2023-08-24T01:51:41;20.40;99.90
7117;DHT22;3600;48.568;7.870;2023-08-24T01:54:09;20.00;99.90
7117;DHT22;3600;48.568;7.870;2023-08-24T01:56:35;19.90;99.90
7117;DHT22;3600;48.568;7.870;2023-08-24T01:59:02;19.90;99.90
7117;DHT22;3600;48.568;7.870;2023-08-24T02:01:29;20.00;99.90
7117;DHT22;3600;48.568;7.870;2023-08-24T02:03:57;20.20;99.90
7117;DHT22;3600;48.568;7.870;2023-08-24T02:06:26;20.60;99.90
7117;DHT22;3600;48.568;7.870;2023-08-24T02:08:53;20.60;99.90
7117;DHT22;3600;48.568;7.870;2023-08-24T02:11:20;20.40;99.90
7117;DHT22;3600;48.568;7.870;2023-08-24T02:13:47;20.60;99.90
7117;DHT22;3600;48.568;7.870;2023-08-24T02:16:14;20.70;99.90
7117;DHT22;3600;48.568;7.870;2023-08-24T02:18:41;20.70;99.90
7117;DHT22;3600;48.568;7.870;2023-08-24T02:21:09;20.70;99.90
7117;DHT22;3600;48.568;7.870;2023-08-24T02:23:39;20.80;99.90
7117;DHT22;3600;48.568;7.870;2023-08-24T02:26:06;20.80;99.90
7117;DHT22;3600;48.568;7.870;2023-08-24T02:28:35;20.90;99.90
7117;DHT22;3600;48.568;7.870;2023-08-24T02:31:03;21.10;99.90
7117;DHT22;3600;48.568;7.870;2023-08-24T02:33:31;20.80;99.90
7117;DHT22;3600;48.568;7.870;2023-08-24T02:35:58;20.80;99.90
7117;DHT22;3600;48.568;7.870;2023-08-24T02:38:26;20.80;99.90
7117;DHT22;3600;48.568;7.870;2023-08-24T02:41:04;20.90;99.90
7117;DHT22;3600;48.568;7.870;2023-08-24T02:43:32;20.80;99.90
7117;DHT22;3600;48.568;7.870;2023-08-24T02:46:03;20.60;99.90
7117;DHT22;3600;48.568;7.870;2023-08-24T02:48:32;20.60;99.90
7117;DHT22;3600;48.568;7.870;2023-08-24T02:51:00;20.70;99.90
7117;DHT22;3600;48.568;7.870;2023-08-24T02:53:30;20.90;99.90
7117;DHT22;3600;48.568;7.870;2023-08-24T02:55:57;20.90;99.90
7117;DHT22;3600;48.568;7.870;2023-08-24T02:58:28;21.00;99.90
7117;DHT22;3600;48.568;7.870;2023-08-24T03:00:58;21.20;99.90
7117;DHT22;3600;48.568;7.870;2023-08-24T03:03:25;21.20;99.90
7117;DHT22;3600;48.568;7.870;2023-08-24T03:05:57;20.90;99.90
7117;DHT22;3600;48.568;7.870;2023-08-24T03:08:25;20.70;99.90
7117;DHT22;3600;48.568;7.870;2023-08-24T03:10:53;20.90;99.90
7117;DHT22;3600;48.568;7.870;2023-08-24T03:13:22;21.10;99.90
7117;DHT22;3600;48.568;7.870;2023-08-24T03:15:51;21.10;99.90
7117;DHT22;3600;48.568;7.870;2023-08-24T03:18:20;21.20;99.90
7117;DHT22;3600;48.568;7.870;2023-08-24T03:20:50;21.10;99.90
7117;DHT22;3600;48.568;7.870;2023-08-24T03:23:17;20.80;99.90
7117;DHT22;3600;48.568;7.870;2023-08-24T03:25:45;20.50;99.90
7117;DHT22;3600;48.568;7.870;2023-08-24T03:28:12;20.30;99.90
7117;DHT22;3600;48.568;7.870;2023-08-24T03:30:44;20.10;99.90
7117;DHT22;3600;48.568;7.870;2023-08-24T03:33:11;19.80;99.90
7117;DHT22;3600;48.568;7.870;2023-08-24T03:35:40;19.60;99.90
7117;DHT22;3600;48.568;7.870;2023-08-24T03:38:07;19.60;99.90
7117;DHT22;3600;48.568;7.870;2023-08-24T03:40:34;19.80;99.90
7117;DHT22;3600;48.568;7.870;2023-08-24T03:43:02;19.80;99.90
7117;DHT22;3600;48.568;7.870;2023-08-24T03:45:29;19.80;99.90
7117;DHT22;3600;48.568;7.870;2023-08-24T03:47:56;19.60;99.90
7117;DHT22;3600;48.568;7.870;2023-08-24T03:50:23;19.70;99.90
7117;DHT22;3600;48.568;7.870;2023-08-24T03:52:50;19.70;99.90
7117;DHT22;3600;48.568;7.870;2023-08-24T03:55:18;19.90;99.90
7117;DHT22;3600;48.568;7.870;2023-08-24T03:57:45;20.20;99.90
7117;DHT22;3600;48.568;7.870;2023-08-24T04:00:12;20.00;99.90
7117;DHT22;3600;48.568;7.870;2023-08-24T04:02:44;20.30;99.90
7117;DHT22;3600;48.568;7.870;2023-08-24T04:05:14;20.30;99.90
7117;DHT22;3600;48.568;7.870;2023-08-24T04:07:41;20.10;99.90
7117;DHT22;3600;48.568;7.870;2023-08-24T04:10:09;20.20;99.90
7117;DHT22;3600;48.568;7.870;2023-08-24T04:12:36;20.30;99.90
7117;DHT22;3600;48.568;7.870;2023-08-24T04:15:04;20.40;99.90
7117;DHT22;3600;48.568;7.870;2023-08-24T04:17:31;20.40;99.90
7117;DHT22;3600;48.568;7.870;2023-08-24T04:19:59;20.40;99.90
7117;DHT22;3600;48.568;7.870;2023-08-24T04:22:26;20.30;99.90
7117;DHT22;3600;48.568;7.870;2023-08-24T04:24:53;20.00;99.90
7117;DHT22;3600;48.568;7.870;2023-08-24T04:27:20;19.60;99.90
7117;DHT22;3600;48.568;7.870;2023-08-24T04:29:48;19.40;99.90
7117;DHT22;3600;48.568;7.870;2023-08-24T04:32:15;19.70;99.90
7117;DHT22;3600;48.568;7.870;2023-08-24T04:34:45;20.00;99.90
7117;DHT22;3600;48.568;7.870;2023-08-24T04:37:12;19.80;99.90
7117;DHT22;3600;48.568;7.870;2023-08-24T04:39:39;19.60;99.90
7117;DHT22;3600;48.568;7.870;2023-08-24T04:42:06;19.40;99.90
7117;DHT22;3600;48.568;7.870;2023-08-24T04:44:33;19.40;99.90
7117;DHT22;3600;48.568;7.870;2023-08-24T04:47:00;19.50;99.90
7117;DHT22;3600;48.568;7.870;2023-08-24T04:49:29;19.30;99.90
7117;DHT22;3600;48.568;7.870;2023-08-24T04:51:56;19.30;99.90
7117;DHT22;3600;48.568;7.870;2023-08-24T04:54:23;19.50;99.90
7117;DHT22;3600;48.568;7.870;2023-08-24T04:56:50;19.50;99.90
7117;DHT22;3600;48.568;7.870;2023-08-24T04:59:17;19.50;99.90
7117;DHT22;3600;48.568;7.870;2023-08-24T05:01:44;19.80;99.90
7117;DHT22;3600;48.568;7.870;2023-08-24T05:04:11;20.10;99.90
7117;DHT22;3600;48.568;7.870;2023-08-24T05:06:39;20.20;99.90
7117;DHT22;3600;48.568;7.870;2023-08-24T05:09:06;20.20;99.90
7117;DHT22;3600;48.568;7.870;2023-08-24T05:11:33;20.30;99.90
7117;DHT22;3600;48.568;7.870;2023-08-24T05:14:00;20.50;99.90
7117;DHT22;3600;48.568;7.870;2023-08-24T05:16:27;20.30;99.90
7117;DHT22;3600;48.568;7.870;2023-08-24T05:18:54;20.20;99.90
7117;DHT22;3600;48.568;7.870;2023-08-24T05:21:22;20.30;99.90
7117;DHT22;3600;48.568;7.870;2023-08-24T05:23:48;20.30;99.90
7117;DHT22;3600;48.568;7.870;2023-08-24T05:26:15;20.30;99.90
7117;DHT22;3600;48.568;7.870;2023-08-24T05:28:49;20.50;99.90
7117;DHT22;3600;48.568;7.870;2023-08-24T05:31:16;20.60;99.90
7117;DHT22;3600;48.568;7.870;2023-08-24T05:33:47;20.70;99.90
7117;DHT22;3600;48.568;7.870;2023-08-24T05:36:14;20.50;99.90
7117;DHT22;3600;48.568;7.870;2023-08-24T05:38:41;20.50;99.90
7117;DHT22;3600;48.568;7.870;2023-08-24T05:41:30;20.60;99.90
7117;DHT22;3600;48.568;7.870;2023-08-24T05:43:58;20.60;99.90
7117;DHT22;3600;48.568;7.870;2023-08-24T05:46:25;20.20;99.90
7117;DHT22;3600;48.568;7.870;2023-08-24T05:48:52;20.00;99.90
7117;DHT22;3600;48.568;7.870;2023-08-24T05:51:19;20.00;99.90
7117;DHT22;3600;48.568;7.870;2023-08-24T05:53:48;19.80;99.90
7117;DHT22;3600;48.568;7.870;2023-08-24T05:56:14;19.70;99.90
7117;DHT22;3600;48.568;7.870;2023-08-24T05:58:41;19.80;99.90
7117;DHT22;3600;48.568;7.870;2023-08-24T06:01:08;19.90;99.90
7117;DHT22;3600;48.568;7.870;2023-08-24T06:03:35;19.80;99.90
7117;DHT22;3600;48.568;7.870;2023-08-24T06:06:03;19.80;99.90
7117;DHT22;3600;48.568;7.870;2023-08-24T06:08:31;19.80;99.90
7117;DHT22;3600;48.568;7.870;2023-08-24T06:10:58;19.70;99.90
7117;DHT22;3600;48.568;7.870;2023-08-24T06:13:25;19.70;99.90
7117;DHT22;3600;48.568;7.870;2023-08-24T06:15:52;19.70;99.90
7117;DHT22;3600;48.568;7.870;2023-08-24T06:18:19;19.80;99.90
7117;DHT22;3600;48.568;7.870;2023-08-24T06:20:46;19.90;99.90
7117;DHT22;3600;48.568;7.870;2023-08-24T06:23:18;19.90;99.90
7117;DHT22;3600;48.568;7.870;2023-08-24T06:25:46;20.10;99.90
7117;DHT22;3600;48.568;7.870;2023-08-24T06:28:13;20.20;99.90
7117;DHT22;3600;48.568;7.870;2023-08-24T06:30:41;20.40;99.90
7117;DHT22;3600;48.568;7.870;2023-08-24T06:33:09;20.40;99.90
7117;DHT22;3600;48.568;7.870;2023-08-24T06:35:37;20.50;99.90
7117;DHT22;3600;48.568;7.870;2023-08-24T06:38:05;20.60;99.90
7117;DHT22;3600;48.568;7.870;2023-08-24T06:40:32;20.60;99.90
7117;DHT22;3600;48.568;7.870;2023-08-24T06:42:59;20.60;99.90
7117;DHT22;3600;48.568;7.870;2023-08-24T06:45:26;20.50;99.90
7117;DHT22;3600;48.568;7.870;2023-08-24T06:47:52;20.50;99.90
7117;DHT22;3600;48.568;7.870;2023-08-24T06:50:20;20.50;99.90
7117;DHT22;3600;48.568;7.870;2023-08-24T06:52:47;20.60;99.90
7117;DHT22;3600;48.568;7.870;2023-08-24T06:55:14;20.80;99.90
7117;DHT22;3600;48.568;7.870;2023-08-24T06:57:41;20.90;99.90
7117;DHT22;3600;48.568;7.870;2023-08-24T07:00:09;20.80;99.90
7117;DHT22;3600;48.568;7.870;2023-08-24T07:02:36;20.60;99.90
7117;DHT22;3600;48.568;7.870;2023-08-24T07:05:04;20.80;99.90
7117;DHT22;3600;48.568;7.870;2023-08-24T07:07:36;20.90;99.90
7117;DHT22;3600;48.568;7.870;2023-08-24T07:10:03;20.80;99.90
7117;DHT22;3600;48.568;7.870;2023-08-24T07:12:30;21.00;99.90
7117;DHT22;3600;48.568;7.870;2023-08-24T07:14:57;21.00;99.90
7117;DHT22;3600;48.568;7.870;2023-08-24T07:17:24;20.90;99.90
7117;DHT22;3600;48.568;7.870;2023-08-24T07:19:51;20.90;99.90
7117;DHT22;3600;48.568;7.870;2023-08-24T07:22:18;20.90;99.90
7117;DHT22;3600;48.568;7.870;2023-08-24T07:24:45;21.10;99.90
7117;DHT22;3600;48.568;7.870;2023-08-24T07:27:13;21.20;99.90
7117;DHT22;3600;48.568;7.870;2023-08-24T07:29:40;21.00;99.90
7117;DHT22;3600;48.568;7.870;2023-08-24T07:32:06;21.10;99.90
7117;DHT22;3600;48.568;7.870;2023-08-24T07:34:33;21.20;99.90
7117;DHT22;3600;48.568;7.870;2023-08-24T07:37:00;21.50;99.90
7117;DHT22;3600;48.568;7.870;2023-08-24T07:39:27;21.70;99.90
7117;DHT22;3600;48.568;7.870;2023-08-24T07:41:55;21.70;99.90
7117;DHT22;3600;48.568;7.870;2023-08-24T07:44:22;21.70;99.90
7117;DHT22;3600;48.568;7.870;2023-08-24T07:46:49;21.60;99.90
7117;DHT22;3600;48.568;7.870;2023-08-24T07:49:16;21.70;99.90
7117;DHT22;3600;48.568;7.870;2023-08-24T07:51:43;21.70;99.90
7117;DHT22;3600;48.568;7.870;2023-08-24T07:54:15;21.80;99.90
7117;DHT22;3600;48.568;7.870;2023-08-24T07:56:44;21.70;99.90
7117;DHT22;3600;48.568;7.870;2023-08-24T07:59:14;21.90;99.90
7117;DHT22;3600;48.568;7.870;2023-08-24T08:01:48;21.90;99.90
7117;DHT22;3600;48.568;7.870;2023-08-24T08:04:18;22.10;99.90
7117;DHT22;3600;48.568;7.870;2023-08-24T08:06:54;22.20;99.90
7117;DHT22;3600;48.568;7.870;2023-08-24T08:09:22;22.20;99.90
7117;DHT22;3600;48.568;7.870;2023-08-24T08:11:49;22.20;99.90
7117;DHT22;3600;48.568;7.870;2023-08-24T08:14:26;22.10;99.90
7117;DHT22;3600;48.568;7.870;2023-08-24T08:16:53;22.40;99.90
7117;DHT22;3600;48.568;7.870;2023-08-24T08:19:22;22.30;99.90
7117;DHT22;3600;48.568;7.870;2023-08-24T08:21:51;22.40;99.90
7117;DHT22;3600;48.568;7.870;2023-08-24T08:24:18;22.70;99.90
7117;DHT22;3600;48.568;7.870;2023-08-24T08:27:03;22.70;99.90
7117;DHT22;3600;48.568;7.870;2023-08-24T08:29:54;22.70;99.90
7117;DHT22;3600;48.568;7.870;2023-08-24T08:32:34;23.00;99.90
7117;DHT22;3600;48.568;7.870;2023-08-24T08:35:14;23.10;99.90
7117;DHT22;3600;48.568;7.870;2023-08-24T08:38:13;23.10;99.90
7117;DHT22;3600;48.568;7.870;2023-08-24T08:40:46;23.10;99.90
7117;DHT22;3600;48.568;7.870;2023-08-24T08:43:18;23.20;99.90
7117;DHT22;3600;48.568;7.870;2023-08-24T08:45:55;23.20;99.90
7117;DHT22;3600;48.568;7.870;2023-08-24T08:52:13;23.30;99.90
7117;DHT22;3600;48.568;7.870;2023-08-24T08:54:57;23.40;99.90
7117;DHT22;3600;48.568;7.870;2023-08-24T08:57:32;23.40;99.90
7117;DHT22;3600;48.568;7.870;2023-08-24T09:00:03;23.50;99.90
7117;DHT22;3600;48.568;7.870;2023-08-24T09:02:48;23.50;99.90
7117;DHT22;3600;48.568;7.870;2023-08-24T09:05:23;23.70;99.90
7117;DHT22;3600;48.568;7.870;2023-08-24T09:08:23;23.80;99.90
7117;DHT22;3600;48.568;7.870;2023-08-24T09:11:06;23.90;99.90
7117;DHT22;3600;48.568;7.870;2023-08-24T09:13:49;24.10;99.90
7117;DHT22;3600;48.568;7.870;2023-08-24T09:16:29;24.10;99.90
7117;DHT22;3600;48.568;7.870;2023-08-24T09:18:59;24.20;99.90
7117;DHT22;3600;48.568;7.870;2023-08-24T09:22:22;24.40;99.90
7117;DHT22;3600;48.568;7.870;2023-08-24T09:25:17;24.30;99.90
7117;DHT22;3600;48.568;7.870;2023-08-24T09:28:04;24.20;99.90
7117;DHT22;3600;48.568;7.870;2023-08-24T09:30:40;24.30;99.90
7117;DHT22;3600;48.568;7.870;2023-08-24T09:33:25;24.60;99.90
7117;DHT22;3600;48.568;7.870;2023-08-24T09:35:58;24.70;99.90
7117;DHT22;3600;48.568;7.870;2023-08-24T09:38:34;24.70;99.90
7117;DHT22;3600;48.568;7.870;2023-08-24T09:41:03;24.90;99.90
7117;DHT22;3600;48.568;7.870;2023-08-24T09:43:54;25.00;99.90
7117;DHT22;3600;48.568;7.870;2023-08-24T09:46:55;25.10;99.90
7117;DHT22;3600;48.568;7.870;2023-08-24T09:49:25;25.30;99.90
7117;DHT22;3600;48.568;7.870;2023-08-24T09:51:58;25.30;99.90
7117;DHT22;3600;48.568;7.870;2023-08-24T09:54:42;25.50;99.90
7117;DHT22;3600;48.568;7.870;2023-08-24T09:57:15;25.60;99.90
7117;DHT22;3600;48.568;7.870;2023-08-24T09:59:59;25.30;99.90
7117;DHT22;3600;48.568;7.870;2023-08-24T10:02:49;25.20;99.90
7117;DHT22;3600;48.568;7.870;2023-08-24T10:05:32;25.30;99.90
7117;DHT22;3600;48.568;7.870;2023-08-24T10:08:35;25.70;99.90
7117;DHT22;3600;48.568;7.870;2023-08-24T10:11:08;25.80;99.90
7117;DHT22;3600;48.568;7.870;2023-08-24T10:17:01;25.90;99.90
7117;DHT22;3600;48.568;7.870;2023-08-24T10:20:15;25.90;99.90
7117;DHT22;3600;48.568;7.870;2023-08-24T10:27:25;26.30;99.90
7117;DHT22;3600;48.568;7.870;2023-08-24T10:34:12;26.50;99.90
7117;DHT22;3600;48.568;7.870;2023-08-24T10:37:21;26.90;99.90
7117;DHT22;3600;48.568;7.870;2023-08-24T10:40:53;27.10;99.90
7117;DHT22;3600;48.568;7.870;2023-08-24T10:44:07;27.10;99.90
7117;DHT22;3600;48.568;7.870;2023-08-24T10:47:15;27.40;99.90
7117;DHT22;3600;48.568;7.870;2023-08-24T10:50:07;27.70;99.90
7117;DHT22;3600;48.568;7.870;2023-08-24T10:52:53;27.90;99.90
7117;DHT22;3600;48.568;7.870;2023-08-24T10:59:49;27.40;99.90
7117;DHT22;3600;48.568;7.870;2023-08-24T11:09:19;28.00;99.90
7117;DHT22;3600;48.568;7.870;2023-08-24T11:12:00;27.70;99.90
7117;DHT22;3600;48.568;7.870;2023-08-24T11:14:29;27.50;99.90
7117;DHT22;3600;48.568;7.870;2023-08-24T11:16:59;27.90;99.90
7117;DHT22;3600;48.568;7.870;2023-08-24T11:19:26;28.10;99.90
7117;DHT22;3600;48.568;7.870;2023-08-24T11:21:53;28.50;99.90
7117;DHT22;3600;48.568;7.870;2023-08-24T11:24:20;28.70;99.90
7117;DHT22;3600;48.568;7.870;2023-08-24T11:26:48;29.00;99.90
7117;DHT22;3600;48.568;7.870;2023-08-24T11:29:15;29.20;99.90
7117;DHT22;3600;48.568;7.870;2023-08-24T11:31:42;29.30;99.90
7117;DHT22;3600;48.568;7.870;2023-08-24T11:34:10;29.50;99.90
7117;DHT22;3600;48.568;7.870;2023-08-24T11:36:48;29.50;99.90
7117;DHT22;3600;48.568;7.870;2023-08-24T11:39:20;29.60;99.90
7117;DHT22;3600;48.568;7.870;2023-08-24T11:42:07;29.60;99.90
7117;DHT22;3600;48.568;7.870;2023-08-24T11:44:46;29.20;99.90
7117;DHT22;3600;48.568;7.870;2023-08-24T11:47:14;29.20;99.90
7117;DHT22;3600;48.568;7.870;2023-08-24T11:49:41;29.80;99.90
7117;DHT22;3600;48.568;7.870;2023-08-24T11:52:08;29.70;99.90
7117;DHT22;3600;48.568;7.870;2023-08-24T11:54:38;29.10;99.90
7117;DHT22;3600;48.568;7.870;2023-08-24T11:57:08;28.90;99.90
7117;DHT22;3600;48.568;7.870;2023-08-24T11:59:36;29.30;99.90
7117;DHT22;3600;48.568;7.870;2023-08-24T12:02:03;29.10;99.90
7117;DHT22;3600;48.568;7.870;2023-08-24T12:04:39;29.40;99.90
7117;DHT22;3600;48.568;7.870;2023-08-24T12:07:13;29.90;99.90
7117;DHT22;3600;48.568;7.870;2023-08-24T12:09:40;30.20;99.90
7117;DHT22;3600;48.568;7.870;2023-08-24T12:12:17;30.40;99.90
7117;DHT22;3600;48.568;7.870;2023-08-24T12:14:45;30.70;99.90
7117;DHT22;3600;48.568;7.870;2023-08-24T12:17:14;30.80;99.90
7117;DHT22;3600;48.568;7.870;2023-08-24T12:19:42;30.80;99.90
7117;DHT22;3600;48.568;7.870;2023-08-24T12:22:14;30.10;99.90
7117;DHT22;3600;48.568;7.870;2023-08-24T12:24:48;29.90;99.90
7117;DHT22;3600;48.568;7.870;2023-08-24T12:27:32;30.70;99.90
7117;DHT22;3600;48.568;7.870;2023-08-24T12:30:02;30.80;99.90
7117;DHT22;3600;48.568;7.870;2023-08-24T12:32:42;31.00;99.90
7117;DHT22;3600;48.568;7.870;2023-08-24T12:35:11;30.80;99.90
7117;DHT22;3600;48.568;7.870;2023-08-24T12:37:38;31.10;99.90
7117;DHT22;3600;48.568;7.870;2023-08-24T12:40:05;31.40;99.90
7117;DHT22;3600;48.568;7.870;2023-08-24T12:42:33;31.50;99.90
7117;DHT22;3600;48.568;7.870;2023-08-24T12:45:04;31.60;99.90
7117;DHT22;3600;48.568;7.870;2023-08-24T12:47:31;31.80;99.90
7117;DHT22;3600;48.568;7.870;2023-08-24T12:49:59;31.80;99.90
7117;DHT22;3600;48.568;7.870;2023-08-24T12:52:26;31.90;99.90
7117;DHT22;3600;48.568;7.870;2023-08-24T12:54:53;31.50;99.90
7117;DHT22;3600;48.568;7.870;2023-08-24T12:57:20;31.60;99.90
7117;DHT22;3600;48.568;7.870;2023-08-24T12:59:46;31.20;99.90
7117;DHT22;3600;48.568;7.870;2023-08-24T13:02:13;30.50;99.90
7117;DHT22;3600;48.568;7.870;2023-08-24T13:04:55;30.40;99.90
7117;DHT22;3600;48.568;7.870;2023-08-24T13:07:22;31.40;99.90
7117;DHT22;3600;48.568;7.870;2023-08-24T13:09:49;32.00;99.90
7117;DHT22;3600;48.568;7.870;2023-08-24T13:12:18;32.40;99.90
7117;DHT22;3600;48.568;7.870;2023-08-24T13:14:45;32.50;99.90
7117;DHT22;3600;48.568;7.870;2023-08-24T13:17:12;32.40;99.90
7117;DHT22;3600;48.568;7.870;2023-08-24T13:19:38;32.30;99.90
7117;DHT22;3600;48.568;7.870;2023-08-24T13:22:07;32.00;99.90
7117;DHT22;3600;48.568;7.870;2023-08-24T13:24:37;32.20;99.90
7117;DHT22;3600;48.568;7.870;2023-08-24T13:27:06;31.70;99.90
7117;DHT22;3600;48.568;7.870;2023-08-24T13:29:37;31.90;99.90
7117;DHT22;3600;48.568;7.870;2023-08-24T13:32:05;31.90;99.90
7117;DHT22;3600;48.568;7.870;2023-08-24T13:34:32;31.60;99.90
7117;DHT22;3600;48.568;7.870;2023-08-24T13:36:59;31.40;99.90
7117;DHT22;3600;48.568;7.870;2023-08-24T13:39:26;30.50;99.90
7117;DHT22;3600;48.568;7.870;2023-08-24T13:41:56;30.50;99.90
7117;DHT22;3600;48.568;7.870;2023-08-24T13:44:23;30.40;99.90
7117;DHT22;3600;48.568;7.870;2023-08-24T13:46:51;29.80;99.90
7117;DHT22;3600;48.568;7.870;2023-08-24T13:49:21;29.50;99.90
7117;DHT22;3600;48.568;7.870;2023-08-24T13:52:05;29.50;99.90
7117;DHT22;3600;48.568;7.870;2023-08-24T13:54:32;29.10;99.90
7117;DHT22;3600;48.568;7.870;2023-08-24T13:56:59;28.80;99.90
7117;DHT22;3600;48.568;7.870;2023-08-24T13:59:27;28.60;99.90
7117;DHT22;3600;48.568;7.870;2023-08-24T14:01:55;28.50;99.90
7117;DHT22;3600;48.568;7.870;2023-08-24T14:04:22;28.40;99.90
7117;DHT22;3600;48.568;7.870;2023-08-24T14:06:48;28.40;99.90
7117;DHT22;3600;48.568;7.870;2023-08-24T14:09:15;28.40;99.90
7117;DHT22;3600;48.568;7.870;2023-08-24T14:11:42;28.40;99.90
7117;DHT22;3600;48.568;7.870;2023-08-24T14:14:09;28.40;99.90
7117;DHT22;3600;48.568;7.870;2023-08-24T14:16:36;28.50;99.90
7117;DHT22;3600;48.568;7.870;2023-08-24T14:19:03;28.80;99.90
7117;DHT22;3600;48.568;7.870;2023-08-24T14:21:31;28.90;99.90
7117;DHT22;3600;48.568;7.870;2023-08-24T14:24:01;28.90;99.90
7117;DHT22;3600;48.568;7.870;2023-08-24T14:26:28;28.90;99.90
7117;DHT22;3600;48.568;7.870;2023-08-24T14:28:57;28.70;99.90
7117;DHT22;3600;48.568;7.870;2023-08-24T14:31:28;28.60;99.90
7117;DHT22;3600;48.568;7.870;2023-08-24T14:33:58;28.40;99.90
7117;DHT22;3600;48.568;7.870;2023-08-24T14:36:25;28.30;99.90
7117;DHT22;3600;48.568;7.870;2023-08-24T14:38:54;28.20;99.90
7117;DHT22;3600;48.568;7.870;2023-08-24T14:41:21;27.90;99.90
7117;DHT22;3600;48.568;7.870;2023-08-24T14:43:48;28.00;99.90
7117;DHT22;3600;48.568;7.870;2023-08-24T14:46:14;27.90;99.90
7117;DHT22;3600;48.568;7.870;2023-08-24T14:48:41;27.90;99.90
7117;DHT22;3600;48.568;7.870;2023-08-24T14:51:08;27.90;99.90
7117;DHT22;3600;48.568;7.870;2023-08-24T14:53:35;27.70;99.90
7117;DHT22;3600;48.568;7.870;2023-08-24T14:56:02;27.60;99.90
7117;DHT22;3600;48.568;7.870;2023-08-24T14:58:29;27.70;99.90
7117;DHT22;3600;48.568;7.870;2023-08-24T15:00:57;27.70;99.90
7117;DHT22;3600;48.568;7.870;2023-08-24T15:03:24;27.60;99.90
7117;DHT22;3600;48.568;7.870;2023-08-24T15:06:04;27.70;99.90
7117;DHT22;3600;48.568;7.870;2023-08-24T15:08:32;27.80;99.90
7117;DHT22;3600;48.568;7.870;2023-08-24T15:11:01;28.00;99.90
7117;DHT22;3600;48.568;7.870;2023-08-24T15:13:29;27.80;99.90
7117;DHT22;3600;48.568;7.870;2023-08-24T15:15:57;27.90;99.90
7117;DHT22;3600;48.568;7.870;2023-08-24T15:18:26;27.80;99.90
7117;DHT22;3600;48.568;7.870;2023-08-24T15:20:53;28.00;99.90
7117;DHT22;3600;48.568;7.870;2023-08-24T15:23:24;27.90;99.90
7117;DHT22;3600;48.568;7.870;2023-08-24T15:25:57;27.80;99.90
7117;DHT22;3600;48.568;7.870;2023-08-24T15:28:25;27.90;99.90
7117;DHT22;3600;48.568;7.870;2023-08-24T15:30:52;27.70;99.90
7117;DHT22;3600;48.568;7.870;2023-08-24T15:33:20;27.50;99.90
7117;DHT22;3600;48.568;7.870;2023-08-24T15:35:47;27.40;99.90
7117;DHT22;3600;48.568;7.870;2023-08-24T15:38:14;27.40;99.90
7117;DHT22;3600;48.568;7.870;2023-08-24T15:40:41;27.50;99.90
7117;DHT22;3600;48.568;7.870;2023-08-24T15:43:11;27.40;99.90
7117;DHT22;3600;48.568;7.870;2023-08-24T15:45:38;27.40;99.90
7117;DHT22;3600;48.568;7.870;2023-08-24T15:48:05;27.30;99.90
7117;DHT22;3600;48.568;7.870;2023-08-24T15:50:32;27.40;99.90
7117;DHT22;3600;48.568;7.870;2023-08-24T15:52:59;27.20;99.90
7117;DHT22;3600;48.568;7.870;2023-08-24T15:55:30;27.20;99.90
7117;DHT22;3600;48.568;7.870;2023-08-24T15:57:59;27.20;99.90
7117;DHT22;3600;48.568;7.870;2023-08-24T16:00:28;27.10;99.90
7117;DHT22;3600;48.568;7.870;2023-08-24T16:02:55;27.10;99.90
7117;DHT22;3600;48.568;7.870;2023-08-24T16:05:22;27.10;99.90
7117;DHT22;3600;48.568;7.870;2023-08-24T16:07:52;27.30;99.90
7117;DHT22;3600;48.568;7.870;2023-08-24T16:10:21;27.50;99.90
7117;DHT22;3600;48.568;7.870;2023-08-24T16:12:48;27.50;99.90
7117;DHT22;3600;48.568;7.870;2023-08-24T16:15:15;27.10;99.90
7117;DHT22;3600;48.568;7.870;2023-08-24T16:17:43;26.90;99.90
7117;DHT22;3600;48.568;7.870;2023-08-24T16:20:10;27.00;99.90
7117;DHT22;3600;48.568;7.870;2023-08-24T16:22:38;26.90;99.90
7117;DHT22;3600;48.568;7.870;2023-08-24T16:25:05;26.70;99.90
7117;DHT22;3600;48.568;7.870;2023-08-24T16:27:32;26.70;99.90
7117;DHT22;3600;48.568;7.870;2023-08-24T16:30:04;26.60;99.90
7117;DHT22;3600;48.568;7.870;2023-08-24T16:32:32;26.60;99.90
7117;DHT22;3600;48.568;7.870;2023-08-24T16:34:59;26.70;99.90
7117;DHT22;3600;48.568;7.870;2023-08-24T16:37:26;26.90;99.90
7117;DHT22;3600;48.568;7.870;2023-08-24T16:39:54;26.60;99.90
7117;DHT22;3600;48.568;7.870;2023-08-24T16:42:20;26.50;99.90
7117;DHT22;3600;48.568;7.870;2023-08-24T16:44:47;26.40;99.90
7117;DHT22;3600;48.568;7.870;2023-08-24T16:47:14;26.60;99.90
7117;DHT22;3600;48.568;7.870;2023-08-24T16:49:41;26.50;99.90
7117;DHT22;3600;48.568;7.870;2023-08-24T16:52:09;26.50;99.90